Time;durP1;ratioP1;P1;durP2;ratioP2;P2;SDS_P1;SDS_P2;PMS_P1;PMS_P2;Temp;Humidity;BMP_temperature;BMP_pressure;BME280_temperature;BME280_humidity;BME280_pressure;Samples;Min_cycle;Max_cycle;Signal;HPM_P1;HPM_P2
2023/12/24 00:01:56;;;;;;;1.53;0.57;;;8.00;99.90;;;;;;5034623;28;20190;-85
2023/12/24 00:04:22;;;;;;;0.70;0.60;;;8.10;99.90;;;;;;5034664;28;20691;-85
2023/12/24 00:06:48;;;;;;;1.13;0.67;;;8.10;99.90;;;;;;5052700;28;20650;-85
2023/12/24 00:09:13;;;;;;;0.60;0.50;;;8.10;99.90;;;;;;5052851;28;20174;-85
2023/12/24 00:11:39;;;;;;;1.00;0.60;;;8.10;99.90;;;;;;5052425;28;20178;-85
2023/12/24 00:14:04;;;;;;;0.83;0.53;;;8.20;99.90;;;;;;5052372;28;20226;-85
2023/12/24 00:16:30;;;;;;;0.50;0.40;;;8.20;99.90;;;;;;5052436;28;20176;-85
2023/12/24 00:18:57;;;;;;;0.63;0.63;;;8.20;99.90;;;;;;5052704;28;20652;-85
2023/12/24 00:21:23;;;;;;;0.60;0.60;;;8.20;99.90;;;;;;5034757;28;20207;-85
2023/12/24 00:23:49;;;;;;;0.43;0.43;;;8.20;99.90;;;;;;5034766;28;20184;-86
2023/12/24 00:26:16;;;;;;;0.50;0.50;;;8.20;99.90;;;;;;5052531;28;20196;-86
2023/12/24 00:28:41;;;;;;;0.50;0.50;;;8.20;99.90;;;;;;5052662;28;20231;-86
2023/12/24 00:31:07;;;;;;;0.60;0.60;;;8.20;99.90;;;;;;5052082;28;20180;-85
2023/12/24 00:33:32;;;;;;;0.40;0.40;;;8.10;99.90;;;;;;5052449;28;20649;-85
2023/12/24 00:35:58;;;;;;;0.40;0.33;;;8.20;99.90;;;;;;5052523;28;20212;-85
2023/12/24 00:38:23;;;;;;;0.50;0.30;;;8.30;99.90;;;;;;5054097;28;20312;-86
2023/12/24 00:40:49;;;;;;;1.77;0.50;;;8.30;99.90;;;;;;5054143;28;20207;-85
2023/12/24 00:43:15;;;;;;;0.57;0.57;;;8.20;99.90;;;;;;5072174;28;20191;-85
2023/12/24 00:45:40;;;;;;;1.00;0.57;;;8.20;99.90;;;;;;5074564;28;20217;-85
2023/12/24 00:48:06;;;;;;;1.10;0.57;;;8.20;99.90;;;;;;5058220;28;20178;-86
2023/12/24 00:50:32;;;;;;;1.53;0.67;;;8.30;99.90;;;;;;5058203;28;20203;-85
2023/12/24 00:52:57;;;;;;;0.80;0.60;;;8.20;99.90;;;;;;5058240;28;20230;-85
2023/12/24 00:55:23;;;;;;;0.50;0.40;;;8.20;99.90;;;;;;5058132;28;20248;-85
2023/12/24 00:57:48;;;;;;;0.50;0.50;;;8.20;99.90;;;;;;5075810;28;20695;-85
2023/12/24 01:00:14;;;;;;;0.40;0.40;;;8.10;99.90;;;;;;5075510;28;20172;-87
2023/12/24 01:02:40;;;;;;;0.43;0.43;;;8.00;99.90;;;;;;5076306;28;20236;-85
2023/12/24 01:05:07;;;;;;;0.40;0.40;;;8.10;99.90;;;;;;5075932;28;20190;-85
2023/12/24 01:07:33;;;;;;;1.23;0.33;;;8.00;99.90;;;;;;5076076;28;20589;-85
2023/12/24 01:09:58;;;;;;;2.17;0.30;;;7.90;99.90;;;;;;5075711;28;20709;-86
2023/12/24 01:12:24;;;;;;;0.60;0.53;;;7.90;99.90;;;;;;5075666;28;20303;-85
2023/12/24 01:14:49;;;;;;;0.50;0.50;;;7.80;99.90;;;;;;5057665;28;20237;-85
2023/12/24 01:17:15;;;;;;;0.50;0.50;;;7.80;99.90;;;;;;5057846;28;20237;-85
2023/12/24 01:19:41;;;;;;;0.67;0.50;;;7.80;99.90;;;;;;5075551;28;20167;-86
2023/12/24 01:22:06;;;;;;;1.00;0.60;;;7.80;99.90;;;;;;5075991;28;20173;-85
2023/12/24 01:24:32;;;;;;;0.80;0.60;;;7.80;99.90;;;;;;5057909;28;20203;-84
2023/12/24 01:26:57;;;;;;;1.03;0.40;;;7.80;99.90;;;;;;5075568;28;20225;-85
2023/12/24 01:29:23;;;;;;;0.50;0.50;;;7.80;99.90;;;;;;5075273;28;20176;-86
2023/12/24 01:31:48;;;;;;;0.47;0.47;;;7.80;99.90;;;;;;5075164;28;20174;-85
2023/12/24 01:34:14;;;;;;;1.00;0.60;;;7.80;99.90;;;;;;5057342;28;20622;-85
2023/12/24 01:36:40;;;;;;;1.03;0.67;;;7.80;99.90;;;;;;5057830;28;20178;-85
2023/12/24 01:39:13;;;;;;;0.83;0.43;;;7.70;99.90;;;;;;5057361;28;20183;-85
2023/12/24 01:41:38;;;;;;;0.80;0.60;;;7.70;99.90;;;;;;5057146;28;20182;-85
2023/12/24 01:44:04;;;;;;;2.10;0.50;;;7.70;99.90;;;;;;5074927;28;20269;-85
2023/12/24 01:46:30;;;;;;;0.97;0.60;;;7.70;99.90;;;;;;5075184;28;20235;-85
2023/12/24 01:48:56;;;;;;;0.70;0.70;;;7.70;99.90;;;;;;5057202;28;20176;-85
2023/12/24 01:51:23;;;;;;;1.67;0.70;;;7.70;99.90;;;;;;5074815;28;20176;-85
2023/12/24 01:53:52;;;;;;;0.67;0.50;;;7.80;99.90;;;;;;5056747;28;20204;-85
2023/12/24 01:56:21;;;;;;;0.60;0.60;;;7.80;99.90;;;;;;5074621;28;20703;-85
2023/12/24 01:58:46;;;;;;;1.50;0.53;;;7.80;99.90;;;;;;5057043;28;20266;-85
2023/12/24 02:01:12;;;;;;;0.70;0.70;;;7.90;99.90;;;;;;5056510;28;20253;-85
2023/12/24 02:03:38;;;;;;;0.83;0.50;;;7.90;99.90;;;;;;5056865;28;20185;-86
2023/12/24 02:06:05;;;;;;;1.50;0.67;;;7.90;99.90;;;;;;5056582;28;20205;-85
2023/12/24 02:08:31;;;;;;;0.90;0.37;;;8.00;99.90;;;;;;5074778;28;20183;-85
2023/12/24 02:10:58;;;;;;;1.13;0.60;;;8.00;99.90;;;;;;5056378;28;20171;-85
2023/12/24 02:13:23;;;;;;;1.20;0.60;;;8.00;99.90;;;;;;5074480;28;20176;-85
2023/12/24 02:15:54;;;;;;;0.60;0.50;;;8.00;99.90;;;;;;5056526;28;20215;-85
2023/12/24 02:18:21;;;;;;;0.50;0.50;;;8.00;99.90;;;;;;5074493;28;20183;-84
2023/12/24 02:20:47;;;;;;;0.73;0.53;;;8.10;99.90;;;;;;5056055;28;20175;-85
2023/12/24 02:23:12;;;;;;;0.97;0.40;;;8.10;99.90;;;;;;5056494;28;20180;-85
2023/12/24 02:25:38;;;;;;;0.43;0.43;;;8.10;99.90;;;;;;5056202;28;20213;-84
2023/12/24 02:28:21;;;;;;;0.53;0.53;;;8.10;99.90;;;;;;5056260;28;20224;-85
2023/12/24 02:30:54;;;;;;;0.40;0.40;;;8.10;99.90;;;;;;5056114;28;20199;-86
2023/12/24 02:33:21;;;;;;;0.50;0.47;;;8.10;99.90;;;;;;5074291;28;20274;-85
2023/12/24 02:35:48;;;;;;;2.07;0.50;;;8.10;99.90;;;;;;5073990;28;20192;-85
2023/12/24 02:38:14;;;;;;;0.83;0.50;;;8.10;99.90;;;;;;5055817;28;20585;-85
2023/12/24 02:40:40;;;;;;;0.50;0.50;;;8.00;99.90;;;;;;5055790;28;20184;-85
2023/12/24 02:43:05;;;;;;;0.50;0.50;;;8.00;99.90;;;;;;5055891;28;20180;-85
2023/12/24 02:45:31;;;;;;;0.53;0.53;;;8.00;99.90;;;;;;5074211;28;20258;-86
2023/12/24 02:47:56;;;;;;;0.40;0.40;;;8.00;99.90;;;;;;5055669;28;20260;-85
2023/12/24 02:50:22;;;;;;;0.50;0.50;;;8.00;99.90;;;;;;5055706;28;20267;-85
2023/12/24 02:52:48;;;;;;;0.60;0.60;;;8.00;99.90;;;;;;5073455;28;20180;-85
2023/12/24 02:55:13;;;;;;;1.63;0.60;;;7.90;99.90;;;;;;5073648;28;20255;-87
2023/12/24 02:57:39;;;;;;;1.23;0.70;;;7.90;99.90;;;;;;5055959;28;20179;-85
2023/12/24 03:00:08;;;;;;;0.80;0.60;;;7.90;99.90;;;;;;5047808;28;20212;-85
2023/12/24 03:02:34;;;;;;;0.70;0.60;;;7.90;99.90;;;;;;5053523;28;20183;-85
2023/12/24 03:04:59;;;;;;;0.80;0.60;;;7.90;99.90;;;;;;5035634;28;20207;-86
2023/12/24 03:07:25;;;;;;;0.60;0.60;;;7.90;99.90;;;;;;5034775;28;20628;-84
2023/12/24 03:09:51;;;;;;;0.47;0.47;;;7.90;99.90;;;;;;5035163;28;20181;-84
2023/12/24 03:12:17;;;;;;;0.70;0.70;;;7.90;99.90;;;;;;5053592;28;20175;-85
2023/12/24 03:14:42;;;;;;;0.63;0.50;;;7.90;99.90;;;;;;5035337;28;20194;-84
2023/12/24 03:17:08;;;;;;;1.57;0.57;;;8.00;99.90;;;;;;5035349;28;20659;-85
2023/12/24 03:19:34;;;;;;;1.10;0.60;;;8.00;99.90;;;;;;5035155;28;20245;-86
2023/12/24 03:21:59;;;;;;;0.97;0.60;;;8.00;99.90;;;;;;5053249;28;20179;-85
2023/12/24 03:24:25;;;;;;;0.70;0.70;;;8.00;99.90;;;;;;5035047;28;20191;-85
2023/12/24 03:26:50;;;;;;;1.43;0.60;;;8.00;99.90;;;;;;5034970;28;20208;-85
2023/12/24 03:29:16;;;;;;;0.50;0.50;;;8.00;99.90;;;;;;5034747;28;20172;-85
2023/12/24 03:31:42;;;;;;;2.10;0.60;;;7.90;99.90;;;;;;5034972;28;20180;-85
2023/12/24 03:34:07;;;;;;;1.23;0.90;;;8.00;99.90;;;;;;5035138;28;20197;-85
2023/12/24 03:36:33;;;;;;;0.80;0.50;;;7.90;99.90;;;;;;5052911;28;20551;-85
2023/12/24 03:38:58;;;;;;;0.93;0.60;;;8.00;99.90;;;;;;5034895;28;20608;-86
2023/12/24 03:41:24;;;;;;;0.87;0.33;;;8.00;99.90;;;;;;5034672;28;20176;-84
2023/12/24 03:43:49;;;;;;;0.77;0.60;;;8.00;99.90;;;;;;5052328;28;20249;-85
2023/12/24 03:46:19;;;;;;;0.43;0.43;;;8.00;99.90;;;;;;5034904;28;20203;-85
2023/12/24 03:48:45;;;;;;;0.77;0.70;;;8.00;99.90;;;;;;5052702;28;20782;-86
2023/12/24 03:51:11;;;;;;;0.57;0.57;;;8.00;99.90;;;;;;5034702;28;20211;-85
2023/12/24 03:53:37;;;;;;;0.60;0.60;;;8.00;99.90;;;;;;5052716;28;20318;-85
2023/12/24 03:56:08;;;;;;;1.10;0.60;;;8.00;99.90;;;;;;5034811;28;20567;-85
2023/12/24 03:58:34;;;;;;;0.70;0.60;;;8.00;99.90;;;;;;5034798;28;20676;-85
2023/12/24 04:01:00;;;;;;;0.73;0.67;;;8.00;99.90;;;;;;5052641;28;20225;-85
2023/12/24 04:03:25;;;;;;;1.53;0.70;;;7.90;99.90;;;;;;5052586;28;20562;-86
2023/12/24 04:05:51;;;;;;;0.73;0.63;;;8.00;99.90;;;;;;5034161;28;20190;-85
2023/12/24 04:08:16;;;;;;;0.67;0.53;;;8.00;99.90;;;;;;5052349;28;20183;-85
2023/12/24 04:10:42;;;;;;;1.30;0.60;;;7.90;99.90;;;;;;5034575;28;20181;-84
2023/12/24 04:13:08;;;;;;;1.03;0.90;;;7.90;99.90;;;;;;5034621;28;20206;-85
2023/12/24 04:15:34;;;;;;;1.17;0.77;;;7.80;99.90;;;;;;5052388;28;20191;-84
2023/12/24 04:18:00;;;;;;;0.87;0.70;;;7.80;99.90;;;;;;5052572;28;20191;-85
2023/12/24 04:20:26;;;;;;;0.63;0.60;;;7.80;99.90;;;;;;5056071;28;20325;-85
2023/12/24 04:22:51;;;;;;;1.10;0.80;;;7.90;99.90;;;;;;5056654;28;20671;-85
2023/12/24 04:25:17;;;;;;;0.83;0.60;;;7.80;99.90;;;;;;5038684;28;20295;-85
2023/12/24 04:27:42;;;;;;;0.80;0.70;;;7.90;99.90;;;;;;5056074;28;20234;-85
2023/12/24 04:30:08;;;;;;;0.70;0.70;;;7.80;99.90;;;;;;5038432;28;20259;-85
2023/12/24 04:32:34;;;;;;;0.93;0.77;;;7.80;99.90;;;;;;5056230;28;20206;-85
2023/12/24 04:35:00;;;;;;;1.57;0.70;;;7.80;99.90;;;;;;5038552;28;20190;-84
2023/12/24 04:37:25;;;;;;;1.23;0.70;;;7.90;99.90;;;;;;5056627;28;20184;-84
2023/12/24 04:39:51;;;;;;;0.70;0.53;;;7.80;99.90;;;;;;5056042;28;20171;-85
2023/12/24 04:42:17;;;;;;;0.70;0.70;;;7.90;99.90;;;;;;5038385;28;20181;-85
2023/12/24 04:44:42;;;;;;;0.87;0.70;;;7.90;99.90;;;;;;5038019;28;20215;-85
2023/12/24 04:47:08;;;;;;;1.73;1.00;;;7.90;99.90;;;;;;5055684;28;20356;-85
2023/12/24 04:49:33;;;;;;;0.83;0.70;;;7.90;99.90;;;;;;5055745;28;20170;-85
2023/12/24 04:51:59;;;;;;;1.23;0.70;;;7.90;99.90;;;;;;5055984;28;20176;-85
2023/12/24 04:54:28;;;;;;;1.43;0.73;;;7.90;99.90;;;;;;5055756;28;20200;-84
2023/12/24 04:56:54;;;;;;;0.70;0.70;;;8.00;99.90;;;;;;5038112;28;20262;-85
2023/12/24 04:59:20;;;;;;;0.70;0.70;;;8.00;99.90;;;;;;5056102;28;20251;-85
2023/12/24 05:01:46;;;;;;;1.20;0.97;;;8.00;99.90;;;;;;5037831;28;20187;-85
2023/12/24 05:04:11;;;;;;;2.03;1.17;;;8.00;99.90;;;;;;5055655;28;20261;-85
2023/12/24 05:06:37;;;;;;;1.13;0.90;;;8.00;99.90;;;;;;5037901;28;20234;-85
2023/12/24 05:09:03;;;;;;;2.10;1.20;;;8.00;99.90;;;;;;5037688;28;20171;-85
2023/12/24 05:11:28;;;;;;;1.57;1.00;;;7.90;99.90;;;;;;5037276;28;20176;-85
2023/12/24 05:13:54;;;;;;;1.47;1.13;;;7.90;99.90;;;;;;5037667;28;20196;-85
2023/12/24 05:16:19;;;;;;;1.77;1.10;;;7.90;99.90;;;;;;5037452;28;20179;-85
2023/12/24 05:18:45;;;;;;;1.57;1.17;;;7.90;99.90;;;;;;5037667;28;20176;-85
2023/12/24 05:21:11;;;;;;;2.07;1.20;;;7.80;99.90;;;;;;5037662;28;20176;-85
2023/12/24 05:23:36;;;;;;;1.60;1.20;;;7.80;99.90;;;;;;5037369;28;20267;-85
2023/12/24 05:26:02;;;;;;;2.80;1.30;;;7.70;99.90;;;;;;5036998;28;20213;-85
2023/12/24 05:28:28;;;;;;;1.70;1.27;;;7.70;99.90;;;;;;5037530;28;20167;-84
2023/12/24 05:30:53;;;;;;;1.30;1.20;;;7.60;99.90;;;;;;5054488;28;20176;-85
2023/12/24 05:33:19;;;;;;;1.73;1.40;;;7.60;99.90;;;;;;5055216;28;20183;-85
2023/12/24 05:35:45;;;;;;;2.73;1.30;;;7.50;99.90;;;;;;5055305;28;20540;-85
2023/12/24 05:38:10;;;;;;;3.37;1.40;;;7.50;99.90;;;;;;5036983;28;20179;-85
2023/12/24 05:40:36;;;;;;;1.93;1.40;;;7.40;99.90;;;;;;5036780;28;20545;-85
2023/12/24 05:43:02;;;;;;;2.13;1.40;;;7.40;99.90;;;;;;5055109;28;20170;-85
2023/12/24 05:45:27;;;;;;;3.13;1.30;;;7.40;99.90;;;;;;5036921;28;20207;-85
2023/12/24 05:47:53;;;;;;;1.10;1.00;;;7.40;99.90;;;;;;5036880;28;20197;-85
2023/12/24 05:50:18;;;;;;;1.30;1.20;;;7.40;99.90;;;;;;5054838;28;20180;-85
2023/12/24 05:52:44;;;;;;;0.87;0.87;;;7.40;99.90;;;;;;5055191;28;20261;-85
2023/12/24 05:55:10;;;;;;;1.50;1.27;;;7.40;99.90;;;;;;5036886;28;20223;-85
2023/12/24 05:57:36;;;;;;;0.93;0.93;;;7.40;99.90;;;;;;5055040;28;20716;-85
2023/12/24 06:00:03;;;;;;;1.37;1.10;;;7.40;99.90;;;;;;5054748;28;20178;-85
2023/12/24 06:02:28;;;;;;;1.33;1.20;;;7.40;99.90;;;;;;5054571;28;20550;-84
2023/12/24 06:04:54;;;;;;;1.13;0.90;;;7.40;99.90;;;;;;5036831;28;20249;-85
2023/12/24 06:07:19;;;;;;;1.67;1.00;;;7.30;99.90;;;;;;5054294;28;20198;-82
2023/12/24 06:09:45;;;;;;;0.90;0.80;;;7.40;99.90;;;;;;5036410;28;20253;-82
2023/12/24 06:12:10;;;;;;;3.67;3.27;;;7.50;99.90;;;;;;5036396;28;20175;-84
2023/12/24 06:14:36;;;;;;;0.80;0.80;;;7.60;99.90;;;;;;5036309;28;20197;-84
2023/12/24 06:17:02;;;;;;;0.70;0.70;;;7.60;99.90;;;;;;5036627;28;20182;-84
2023/12/24 06:19:28;;;;;;;0.97;0.87;;;7.50;99.90;;;;;;5054337;28;20261;-84
2023/12/24 06:21:53;;;;;;;0.70;0.70;;;7.40;99.90;;;;;;5054504;28;20261;-86
2023/12/24 06:24:21;;;;;;;0.93;0.87;;;7.30;99.90;;;;;;5055001;28;20193;-86
2023/12/24 06:26:50;;;;;;;0.97;0.70;;;7.30;99.90;;;;;;5036321;28;20283;-86
2023/12/24 06:29:15;;;;;;;1.13;1.00;;;7.40;99.90;;;;;;5036654;28;20251;-86
2023/12/24 06:31:41;;;;;;;1.07;0.97;;;7.40;99.90;;;;;;5036928;28;20175;-84
2023/12/24 06:34:06;;;;;;;1.67;1.00;;;7.40;99.90;;;;;;5054313;28;20277;-86
2023/12/24 06:36:32;;;;;;;0.87;0.87;;;7.30;99.90;;;;;;5037039;28;20185;-85
2023/12/24 06:38:57;;;;;;;1.03;0.93;;;7.30;99.90;;;;;;5054808;28;20209;-86
2023/12/24 06:41:23;;;;;;;1.27;1.10;;;7.30;99.90;;;;;;5036464;28;20192;-86
2023/12/24 06:43:49;;;;;;;0.90;0.90;;;7.40;99.90;;;;;;5053776;28;20179;-85
2023/12/24 06:46:15;;;;;;;1.23;1.00;;;7.30;99.90;;;;;;5036522;28;20262;-84
2023/12/24 06:48:41;;;;;;;1.10;0.83;;;7.40;99.90;;;;;;5054471;28;20167;-85
2023/12/24 06:51:07;;;;;;;1.10;1.00;;;7.40;99.90;;;;;;5036817;28;20180;-86
2023/12/24 06:53:32;;;;;;;1.20;0.90;;;7.30;99.90;;;;;;5054552;28;20209;-85
2023/12/24 06:55:58;;;;;;;1.10;1.00;;;7.30;99.90;;;;;;5046778;28;20222;-87
2023/12/24 06:58:23;;;;;;;0.80;0.80;;;7.30;99.90;;;;;;5056051;28;20177;-85
2023/12/24 07:00:49;;;;;;;1.00;0.90;;;7.40;99.90;;;;;;5073825;28;20200;-85
2023/12/24 07:03:15;;;;;;;1.00;0.90;;;7.40;99.90;;;;;;5056429;28;20182;-85
2023/12/24 07:05:41;;;;;;;0.80;0.80;;;7.40;99.90;;;;;;5056035;28;20219;-86
2023/12/24 07:08:08;;;;;;;1.13;1.02;;;7.30;99.90;;;;;;5056223;28;20436;-86
2023/12/24 07:10:34;;;;;;;0.87;0.80;;;7.40;99.90;;;;;;5073991;28;20178;-85
2023/12/24 07:13:00;;;;;;;0.90;0.90;;;7.40;99.90;;;;;;5055762;28;20260;-85
2023/12/24 07:15:25;;;;;;;1.03;0.80;;;7.40;99.90;;;;;;5056059;28;20215;-85
2023/12/24 07:17:51;;;;;;;1.37;0.90;;;7.40;99.90;;;;;;5056524;28;20181;-85
2023/12/24 07:20:17;;;;;;;0.90;0.90;;;7.40;99.90;;;;;;5073849;28;20576;-87
2023/12/24 07:22:43;;;;;;;0.70;0.70;;;7.40;99.90;;;;;;5056215;28;20202;-85
2023/12/24 07:25:09;;;;;;;0.60;0.60;;;7.40;99.90;;;;;;5055604;28;20681;-85
2023/12/24 07:27:35;;;;;;;0.80;0.80;;;7.40;99.90;;;;;;5073170;28;20246;-84
2023/12/24 07:30:00;;;;;;;1.00;0.80;;;7.40;99.90;;;;;;5055511;28;20207;-86
2023/12/24 07:32:26;;;;;;;0.93;0.80;;;7.50;99.90;;;;;;5055534;28;20175;-84
2023/12/24 07:34:51;;;;;;;1.17;0.50;;;7.50;99.90;;;;;;5072723;28;20195;-84
2023/12/24 07:37:17;;;;;;;0.60;0.60;;;7.50;99.90;;;;;;5073074;28;20182;-85
2023/12/24 07:39:43;;;;;;;0.80;0.80;;;7.50;99.90;;;;;;5072993;28;20185;-83
2023/12/24 07:42:08;;;;;;;0.70;0.70;;;7.50;99.90;;;;;;5072684;28;20173;-84
2023/12/24 07:44:34;;;;;;;0.70;0.70;;;7.50;99.90;;;;;;5054793;28;20221;-86
2023/12/24 07:47:00;;;;;;;1.17;0.70;;;7.50;99.90;;;;;;5054914;28;20203;-85
2023/12/24 07:49:26;;;;;;;0.80;0.80;;;7.50;99.90;;;;;;5055062;28;20545;-86
2023/12/24 07:51:52;;;;;;;0.60;0.60;;;7.50;99.90;;;;;;5054957;28;20175;-85
2023/12/24 07:54:18;;;;;;;0.70;0.70;;;7.60;99.90;;;;;;5054455;28;20199;-85
2023/12/24 07:56:44;;;;;;;0.77;0.77;;;7.60;99.90;;;;;;5072826;28;20550;-87
2023/12/24 07:59:09;;;;;;;0.80;0.80;;;7.60;99.90;;;;;;5055454;28;20176;-84
2023/12/24 08:01:37;;;;;;;0.73;0.73;;;7.60;99.90;;;;;;5055727;28;20175;-86
2023/12/24 08:04:03;;;;;;;0.80;0.73;;;7.60;99.90;;;;;;5072731;28;20190;-83
2023/12/24 08:06:29;;;;;;;0.80;0.80;;;7.60;99.90;;;;;;5073829;28;20204;-85
2023/12/24 08:08:57;;;;;;;0.80;0.80;;;7.60;99.90;;;;;;5055661;28;20242;-85
2023/12/24 08:11:23;;;;;;;1.17;1.07;;;7.60;99.90;;;;;;5055451;28;20667;-84
2023/12/24 08:13:49;;;;;;;1.13;1.07;;;7.70;99.90;;;;;;5055501;28;20178;-85
2023/12/24 08:16:15;;;;;;;0.70;0.70;;;7.70;99.90;;;;;;5055718;28;20173;-85
2023/12/24 08:18:40;;;;;;;0.60;0.60;;;7.70;99.90;;;;;;5055516;28;20178;-85
2023/12/24 08:21:10;;;;;;;1.00;0.90;;;7.70;99.90;;;;;;5055367;28;20180;-85
2023/12/24 08:23:39;;;;;;;0.87;0.70;;;7.70;99.90;;;;;;5043228;28;20190;-83
2023/12/24 08:26:05;;;;;;;1.23;1.10;;;7.80;99.90;;;;;;5052410;28;20243;-85
2023/12/24 08:28:31;;;;;;;0.50;0.50;;;7.80;99.90;;;;;;5052797;28;20267;-85
2023/12/24 08:30:56;;;;;;;0.50;0.50;;;7.80;99.90;;;;;;5052773;28;20709;-86
2023/12/24 08:33:22;;;;;;;0.60;0.60;;;7.80;99.90;;;;;;5052433;28;20166;-86
2023/12/24 08:35:48;;;;;;;0.60;0.60;;;7.90;99.90;;;;;;5052994;28;20200;-86
2023/12/24 08:38:13;;;;;;;0.67;0.67;;;8.00;99.90;;;;;;5052665;28;20232;-86
2023/12/24 08:40:39;;;;;;;0.73;0.70;;;8.00;99.90;;;;;;5034517;28;20206;-85
2023/12/24 08:43:05;;;;;;;0.63;0.63;;;7.90;99.90;;;;;;5052510;28;20230;-86
2023/12/24 08:45:30;;;;;;;0.83;0.83;;;7.90;99.90;;;;;;5053081;28;20211;-85
2023/12/24 08:47:56;;;;;;;0.80;0.80;;;7.90;99.90;;;;;;5052364;28;20321;-85
2023/12/24 08:50:21;;;;;;;0.60;0.60;;;8.00;99.90;;;;;;5052385;28;20201;-86
2023/12/24 08:52:47;;;;;;;1.60;1.50;;;7.90;99.90;;;;;;5034616;28;20194;-85
2023/12/24 08:55:15;;;;;;;1.10;1.00;;;7.90;99.90;;;;;;5034813;28;20674;-84
2023/12/24 08:57:40;;;;;;;1.50;1.30;;;8.00;99.90;;;;;;5052612;28;20318;-85
2023/12/24 09:00:11;;;;;;;1.30;0.90;;;7.90;99.90;;;;;;5034735;28;20209;-85
2023/12/24 09:02:39;;;;;;;1.07;1.00;;;8.00;99.90;;;;;;5034576;28;20223;-85
2023/12/24 09:05:07;;;;;;;0.80;0.80;;;7.90;99.90;;;;;;5052223;28;20251;-84
2023/12/24 09:07:34;;;;;;;1.30;1.20;;;8.00;99.90;;;;;;5038051;28;20205;-85
2023/12/24 09:09:59;;;;;;;1.10;1.00;;;8.00;99.90;;;;;;5056055;28;20167;-85
2023/12/24 09:12:25;;;;;;;1.87;1.10;;;8.00;99.90;;;;;;5038181;28;20175;-84
2023/12/24 09:14:50;;;;;;;0.80;0.80;;;8.00;99.90;;;;;;5038170;28;20193;-84
2023/12/24 09:17:16;;;;;;;0.83;0.83;;;8.00;99.90;;;;;;5040192;28;20178;-86
2023/12/24 09:19:42;;;;;;;1.10;0.90;;;8.00;99.90;;;;;;5075429;28;20172;-86
2023/12/24 09:22:07;;;;;;;1.10;1.00;;;8.00;99.90;;;;;;5075679;28;20182;-85
2023/12/24 09:24:33;;;;;;;0.70;0.70;;;8.00;99.90;;;;;;5057294;28;20197;-85
2023/12/24 09:26:58;;;;;;;0.70;0.70;;;8.00;99.90;;;;;;5075625;28;20197;-82
2023/12/24 09:29:24;;;;;;;0.87;0.87;;;8.00;99.90;;;;;;5075438;28;20247;-83
2023/12/24 09:31:50;;;;;;;0.90;0.90;;;8.00;99.90;;;;;;5075320;28;20182;-86
2023/12/24 09:34:15;;;;;;;1.13;1.00;;;8.10;99.90;;;;;;5075772;28;20194;-86
2023/12/24 09:36:41;;;;;;;0.80;0.80;;;8.10;99.90;;;;;;5075440;28;20669;-86
2023/12/24 09:39:06;;;;;;;1.27;0.90;;;8.10;99.90;;;;;;5057397;28;20179;-84
2023/12/24 09:41:32;;;;;;;0.93;0.93;;;8.10;99.90;;;;;;5057659;28;20173;-86
2023/12/24 09:43:58;;;;;;;2.27;1.70;;;8.10;99.90;;;;;;5056997;28;20200;-86
2023/12/24 09:46:23;;;;;;;1.60;1.27;;;8.10;99.90;;;;;;5074943;28;20243;-85
2023/12/24 09:48:49;;;;;;;1.20;1.10;;;8.10;99.90;;;;;;5075036;28;20179;-87
2023/12/24 09:51:15;;;;;;;0.90;0.90;;;8.20;99.90;;;;;;5074977;28;20176;-85
2023/12/24 09:53:48;;;;;;;2.23;1.17;;;8.10;99.90;;;;;;5074822;28;20186;-86
2023/12/24 09:56:13;;;;;;;0.90;0.90;;;8.10;99.90;;;;;;5057154;28;20228;-86
2023/12/24 09:58:40;;;;;;;1.30;1.20;;;8.10;99.90;;;;;;5057181;28;20178;-86
2023/12/24 10:01:05;;;;;;;1.20;1.10;;;8.20;99.90;;;;;;5074605;28;20207;-85
2023/12/24 10:03:31;;;;;;;0.90;0.90;;;8.20;99.90;;;;;;5074818;28;20228;-85
2023/12/24 10:06:02;;;;;;;0.93;0.93;;;8.20;99.90;;;;;;5056815;28;20181;-85
2023/12/24 10:08:28;;;;;;;2.00;1.47;;;8.20;99.90;;;;;;5074701;28;20175;-86
2023/12/24 10:10:53;;;;;;;0.70;0.70;;;8.20;99.90;;;;;;5074774;28;20179;-86
2023/12/24 10:13:20;;;;;;;1.27;1.10;;;8.20;99.90;;;;;;5074781;28;20172;-85
2023/12/24 10:15:46;;;;;;;1.43;1.00;;;8.20;99.90;;;;;;5056482;28;20187;-86
2023/12/24 10:18:17;;;;;;;1.43;1.10;;;8.30;99.90;;;;;;5074577;28;20182;-86
2023/12/24 10:20:42;;;;;;;0.90;0.80;;;8.30;99.90;;;;;;5056320;28;20182;-86
2023/12/24 10:23:08;;;;;;;1.20;1.03;;;8.30;99.90;;;;;;5074833;28;20175;-87
2023/12/24 10:25:34;;;;;;;0.90;0.90;;;8.30;99.90;;;;;;5074322;28;20577;-84
2023/12/24 10:28:09;;;;;;;0.90;0.90;;;8.30;99.90;;;;;;5074209;28;20218;-85
2023/12/24 10:30:35;;;;;;;0.87;0.87;;;8.30;99.90;;;;;;5074052;28;20710;-85
2023/12/24 10:33:11;;;;;;;1.53;0.73;;;8.30;99.90;;;;;;5056280;28;20177;-85
2023/12/24 10:35:37;;;;;;;0.70;0.70;;;8.30;99.90;;;;;;5056330;28;20564;-85
2023/12/24 10:38:13;;;;;;;0.90;0.90;;;8.30;99.90;;;;;;5074132;28;20180;-86
2023/12/24 10:40:38;;;;;;;1.17;1.07;;;8.30;99.90;;;;;;5073779;28;20164;-86
2023/12/24 10:43:04;;;;;;;1.20;1.07;;;8.30;99.90;;;;;;5073558;28;20175;-85
2023/12/24 10:45:30;;;;;;;0.97;0.90;;;8.20;99.90;;;;;;5055956;28;20210;-85
2023/12/24 10:47:56;;;;;;;1.00;0.90;;;8.30;99.90;;;;;;5073657;28;20278;-85
2023/12/24 10:50:22;;;;;;;1.20;1.00;;;8.30;99.90;;;;;;5073776;28;20657;-86
2023/12/24 10:52:47;;;;;;;1.00;1.00;;;8.30;99.90;;;;;;5073936;28;20203;-85
2023/12/24 10:55:14;;;;;;;1.00;0.90;;;8.30;99.90;;;;;;5073677;28;20569;-85
2023/12/24 10:57:54;;;;;;;1.30;1.20;;;8.40;99.90;;;;;;5073611;28;20176;-84
2023/12/24 11:00:20;;;;;;;1.07;1.00;;;8.30;99.90;;;;;;5035146;28;20186;-84
2023/12/24 11:02:49;;;;;;;1.23;1.13;;;8.30;99.90;;;;;;5053806;28;20176;-84
2023/12/24 11:05:39;;;;;;;1.23;1.13;;;8.40;99.90;;;;;;5035764;28;20242;-84
2023/12/24 11:08:05;;;;;;;1.10;1.10;;;8.40;99.90;;;;;;5035740;28;20203;-84
2023/12/24 11:10:41;;;;;;;1.27;1.17;;;8.40;99.90;;;;;;5053396;28;20279;-84
2023/12/24 11:13:12;;;;;;;0.93;0.93;;;8.40;99.90;;;;;;5053732;28;20178;-85
2023/12/24 11:15:42;;;;;;;1.17;1.00;;;8.40;99.90;;;;;;5053361;28;20193;-86
2023/12/24 11:18:09;;;;;;;0.70;0.70;;;8.40;99.90;;;;;;5035631;28;20208;-85
2023/12/24 11:20:39;;;;;;;1.23;1.00;;;8.40;99.90;;;;;;5050651;28;20182;-86
2023/12/24 11:23:05;;;;;;;1.00;1.00;;;8.40;99.90;;;;;;5053023;28;20181;-84
2023/12/24 11:25:37;;;;;;;1.30;1.20;;;8.40;99.90;;;;;;5035097;28;20193;-86
2023/12/24 11:28:09;;;;;;;1.10;1.00;;;8.50;99.90;;;;;;5052416;28;20295;-84
2023/12/24 11:30:58;;;;;;;1.40;1.30;;;8.50;99.90;;;;;;5052673;28;20173;-84
2023/12/24 11:33:42;;;;;;;0.90;0.90;;;8.50;99.90;;;;;;5040612;28;20182;-85
2023/12/24 11:36:12;;;;;;;1.10;1.00;;;8.50;99.90;;;;;;5053678;28;20633;-85
2023/12/24 11:38:41;;;;;;;1.20;1.10;;;8.60;99.90;;;;;;5036082;28;20220;-85
2023/12/24 11:41:07;;;;;;;1.60;1.20;;;8.60;99.90;;;;;;5053488;28;20276;-84
2023/12/24 11:43:34;;;;;;;0.90;0.90;;;8.50;99.90;;;;;;5034811;28;20675;-84
2023/12/24 11:45:59;;;;;;;1.47;1.37;;;8.50;99.90;;;;;;5053151;28;20215;-86
2023/12/24 11:48:27;;;;;;;1.67;0.97;;;8.50;99.90;;;;;;5035539;28;20180;-85
2023/12/24 11:51:07;;;;;;;1.53;0.90;;;8.50;99.90;;;;;;5053611;28;20192;-85
2023/12/24 11:53:36;;;;;;;0.87;0.87;;;8.60;99.90;;;;;;5052542;28;20177;-85
2023/12/24 11:56:20;;;;;;;0.90;0.90;;;8.50;99.90;;;;;;5052413;28;20291;-84
2023/12/24 11:58:49;;;;;;;0.87;0.83;;;8.60;99.90;;;;;;5034462;28;20187;-84
2023/12/24 12:01:26;;;;;;;0.80;0.80;;;8.50;99.90;;;;;;5034502;28;20186;-84
2023/12/24 12:04:02;;;;;;;0.70;0.70;;;8.50;99.90;;;;;;5034509;28;20585;-84
2023/12/24 12:06:29;;;;;;;1.23;0.80;;;8.50;99.90;;;;;;5034454;28;20286;-84
2023/12/24 12:08:58;;;;;;;0.80;0.80;;;8.50;99.90;;;;;;5052184;28;20233;-85
2023/12/24 12:11:23;;;;;;;1.20;1.10;;;8.50;99.90;;;;;;5034112;28;20181;-84
2023/12/24 12:13:49;;;;;;;1.10;1.00;;;8.50;99.90;;;;;;5033905;28;20185;-85
2023/12/24 12:16:15;;;;;;;1.13;0.93;;;8.50;99.90;;;;;;5052343;28;20223;-84
2023/12/24 12:18:40;;;;;;;1.43;0.70;;;8.40;99.90;;;;;;5052583;28;20304;-83
2023/12/24 12:21:10;;;;;;;1.90;0.80;;;8.40;99.90;;;;;;5051950;28;20181;-85
2023/12/24 12:23:39;;;;;;;0.63;0.63;;;8.40;99.90;;;;;;5034266;28;20181;-84
2023/12/24 12:26:06;;;;;;;1.20;1.10;;;8.50;99.90;;;;;;5052083;28;20168;-84
2023/12/24 12:28:32;;;;;;;0.90;0.90;;;8.50;99.90;;;;;;5052149;28;20176;-84
2023/12/24 12:30:57;;;;;;;1.03;1.03;;;8.40;99.90;;;;;;5034182;28;20184;-85
2023/12/24 12:33:23;;;;;;;1.03;1.00;;;8.50;99.90;;;;;;5034252;28;20177;-84
2023/12/24 12:35:48;;;;;;;0.80;0.80;;;8.50;99.90;;;;;;5034013;28;20611;-85
2023/12/24 12:38:14;;;;;;;0.80;0.80;;;8.40;99.90;;;;;;5034288;28;20182;-84
2023/12/24 12:40:39;;;;;;;1.00;0.90;;;8.40;99.90;;;;;;5052509;28;20269;-84
2023/12/24 12:43:06;;;;;;;0.80;0.80;;;8.40;99.90;;;;;;5056043;28;20185;-84
2023/12/24 12:45:32;;;;;;;0.80;0.80;;;8.50;99.90;;;;;;5055947;28;20301;-85
2023/12/24 12:47:57;;;;;;;0.70;0.70;;;8.50;99.90;;;;;;5037892;28;20286;-84
2023/12/24 12:50:23;;;;;;;0.80;0.80;;;8.50;99.90;;;;;;5037807;28;20181;-84
2023/12/24 12:52:49;;;;;;;0.90;0.90;;;8.50;99.90;;;;;;5055541;28;20539;-84
2023/12/24 12:55:18;;;;;;;1.80;1.70;;;8.50;99.90;;;;;;5055802;28;20201;-84